createdAt,value
2022-11-09T00:00:07.018Z,99154.56
2022-11-09T00:02:08.647Z,99147.38
2022-11-09T00:04:10.597Z,99161.75
2022-11-09T00:06:12.375Z,99154.56
2022-11-09T00:08:14.079Z,99159.06
2022-11-09T00:10:15.993Z,99163.59
2022-11-09T00:12:17.734Z,99167.97
2022-11-09T00:14:19.475Z,99163.47
2022-11-09T00:16:21.581Z,99159.06
2022-11-09T00:18:23.329Z,99163.72
2022-11-09T00:20:24.998Z,99164.56
2022-11-09T00:22:26.640Z,99172.63
2022-11-09T00:24:28.387Z,99167.97
2022-11-09T00:29:32.781Z,99179.81
2022-11-09T00:31:34.641Z,99163.72
2022-11-09T00:33:36.462Z,99175.31
2022-11-09T00:35:38.690Z,99181.50
2022-11-09T00:37:40.415Z,99174.47
2022-11-09T00:40:00.423Z,99178.94
2022-11-09T00:42:02.065Z,99186.13
2022-11-09T00:44:03.806Z,99178.94
2022-11-09T00:46:05.977Z,99179.81
2022-11-09T00:48:07.859Z,99171.06
2022-11-09T00:50:09.725Z,99173.59
2022-11-09T00:52:11.428Z,99178.94
2022-11-09T00:54:13.126Z,99179.94
2022-11-09T00:56:14.873Z,99176.41
2022-11-09T00:58:16.585Z,99170.22
2022-11-09T01:00:19.367Z,99177.25
2022-11-09T01:02:21.151Z,99180.94
2022-11-09T01:04:22.850Z,99182.63
2022-11-09T01:06:25.298Z,99186.28
2022-11-09T01:08:26.998Z,99182.88
2022-11-09T01:10:28.695Z,99180.31
2022-11-09T01:12:30.389Z,99176.78
2022-11-09T01:14:32.139Z,99179.47
2022-11-09T01:16:33.829Z,99184.84
2022-11-09T01:18:35.664Z,99186.66
2022-11-09T01:20:44.948Z,99188.47
2022-11-09T01:22:46.638Z,99184.00
2022-11-09T01:24:48.404Z,99189.34
2022-11-09T01:26:50.114Z,99180.59
2022-11-09T01:28:51.768Z,99187.63
2022-11-09T01:30:53.576Z,99190.31
2022-11-09T01:32:55.281Z,99187.50
2022-11-09T01:34:57.009Z,99186.66
2022-11-09T01:36:58.656Z,99186.66
2022-11-09T01:39:00.663Z,99190.19
2022-11-09T01:41:02.482Z,99186.78
2022-11-09T01:43:18.072Z,99192.03
2022-11-09T01:45:28.553Z,99187.63
2022-11-09T01:47:30.213Z,99196.50
2022-11-09T01:49:54.299Z,99193.00
2022-11-09T01:51:59.275Z,99193.00
2022-11-09T01:54:03.529Z,99201.88
2022-11-09T01:56:06.779Z,99197.50
2022-11-09T01:58:14.935Z,99195.78
2022-11-09T02:00:16.847Z,99201.16
2022-11-09T02:02:18.515Z,99197.63
2022-11-09T02:04:23.082Z,99200.31
2022-11-09T02:06:25.850Z,99211.88
2022-11-09T02:08:27.593Z,99207.50
2022-11-09T02:10:40.894Z,99212.88
2022-11-09T02:12:42.592Z,99212.88
2022-11-09T02:14:44.354Z,99202.88
2022-11-09T02:16:46.060Z,99208.22
2022-11-09T02:18:53.181Z,99206.41
2022-11-09T02:20:55.929Z,99208.22
2022-11-09T02:23:06.494Z,99211.88
2022-11-09T02:25:11.879Z,99201.16
2022-11-09T02:27:13.608Z,99207.50
2022-11-09T02:29:18.514Z,99209.19
2022-11-09T02:31:20.191Z,99210.06
2022-11-09T02:33:22.107Z,99206.50
2022-11-09T02:35:23.937Z,99209.06
2022-11-09T02:37:35.918Z,99212.59
2022-11-09T02:39:37.649Z,99208.22
2022-11-09T02:41:54.637Z,99216.28
2022-11-09T02:43:56.451Z,99215.28
2022-11-09T02:45:58.200Z,99217.22
2022-11-09T02:47:59.927Z,99218.97
2022-11-09T02:50:01.603Z,99215.53
2022-11-09T02:52:03.357Z,99213.72
2022-11-09T02:54:05.088Z,99213.72
2022-11-09T02:56:07.067Z,99209.44
2022-11-09T02:58:08.706Z,99213.84
2022-11-09T03:00:10.906Z,99220.19
2022-11-09T03:02:12.579Z,99218.34
2022-11-09T03:04:14.296Z,99221.16
2022-11-09T03:06:16.159Z,99213.84
2022-11-09T03:08:17.843Z,99224.59
2022-11-09T03:10:19.743Z,99225.41
2022-11-09T03:12:21.438Z,99226.38
2022-11-09T03:14:23.078Z,99226.38
2022-11-09T03:16:24.846Z,99222.84
2022-11-09T03:18:26.550Z,99223.84
2022-11-09T03:20:28.279Z,99229.31
2022-11-09T03:22:29.957Z,99226.53
2022-11-09T03:24:31.574Z,99229.31
2022-11-09T03:26:33.504Z,99227.50
2022-11-09T03:28:35.226Z,99231.88
2022-11-09T03:30:36.941Z,99232.72
2022-11-09T03:32:38.670Z,99231.03
2022-11-09T03:34:40.345Z,99238.09
2022-11-09T03:36:41.991Z,99234.44
2022-11-09T03:38:43.753Z,99233.56
2022-11-09T03:40:45.481Z,99233.56
2022-11-09T03:42:48.049Z,99239.66
2022-11-09T03:44:49.765Z,99236.41
2022-11-09T03:46:51.403Z,99233.00
2022-11-09T03:48:53.244Z,99249.91
2022-11-09T03:50:55.051Z,99237.47
2022-11-09T03:52:57.531Z,99241.16
2022-11-09T03:54:59.197Z,99241.25
2022-11-09T03:57:00.998Z,99248.47
2022-11-09T03:59:02.650Z,99243.09
2022-11-09T04:01:04.319Z,99252.97
2022-11-09T04:03:05.991Z,99241.25
2022-11-09T04:05:08.495Z,99247.50
2022-11-09T04:07:12.884Z,99237.75
2022-11-09T04:09:14.402Z,99242.25
2022-11-09T04:11:16.192Z,99253.81
2022-11-09T04:13:18.212Z,99246.63
2022-11-09T04:15:20.291Z,99250.88
2022-11-09T04:17:21.936Z,99244.56
2022-11-09T04:19:23.655Z,99248.09
2022-11-09T04:21:25.459Z,99250.78
2022-11-09T04:23:27.139Z,99244.56
2022-11-09T04:25:31.662Z,99238.09
2022-11-09T04:27:33.329Z,99233.31
2022-11-09T04:29:35.075Z,99238.69
2022-11-09T04:31:36.829Z,99244.66
2022-11-09T04:33:38.515Z,99245.13
2022-11-09T04:35:40.232Z,99239.66
2022-11-09T04:37:41.974Z,99236.69
2022-11-09T04:39:43.665Z,99239.13
2022-11-09T04:41:45.372Z,99250.56
2022-11-09T04:43:47.147Z,99260.34
2022-11-09T04:45:48.762Z,99260.19
2022-11-09T04:47:50.418Z,99268.13
2022-11-09T04:49:52.080Z,99256.56
2022-11-09T04:51:53.699Z,99260.06
2022-11-09T04:53:55.404Z,99263.50
2022-11-09T04:55:57.298Z,99264.34
2022-11-09T04:57:58.928Z,99252.75
2022-11-09T05:00:00.616Z,99259.81
2022-11-09T05:02:02.205Z,99272.50
2022-11-09T05:04:04.080Z,99269.81
2022-11-09T05:06:05.937Z,99268.00
2022-11-09T05:08:07.561Z,99270.81
2022-11-09T05:10:09.321Z,99271.78
2022-11-09T05:12:11.320Z,99270.81
2022-11-09T05:14:12.977Z,99269.13
2022-11-09T05:16:14.684Z,99265.44
2022-11-09T05:18:16.318Z,99261.91
2022-11-09T05:20:18.249Z,99274.47
2022-11-09T05:22:19.890Z,99274.47
2022-11-09T05:24:21.552Z,99275.31
2022-11-09T05:26:23.315Z,99279.84
2022-11-09T05:28:24.938Z,99272.75
2022-11-09T05:30:26.700Z,99273.59
2022-11-09T05:32:28.351Z,99288.72
2022-11-09T05:34:29.971Z,99278.84
2022-11-09T05:36:31.669Z,99276.16
2022-11-09T05:38:33.398Z,99279.84
2022-11-09T05:40:35.000Z,99277.16
2022-11-09T05:42:39.977Z,99269.97
2022-11-09T05:44:41.607Z,99278.84
2022-11-09T05:46:43.318Z,99277.00
2022-11-09T05:48:45.047Z,99276.16
2022-11-09T05:50:46.788Z,99280.53
2022-11-09T05:52:48.456Z,99276.16
2022-11-09T05:54:50.120Z,99277.00
2022-11-09T05:56:51.764Z,99277.84
2022-11-09T05:58:53.572Z,99278.84
2022-11-09T06:00:55.327Z,99287.75
2022-11-09T06:03:08.775Z,99291.25
2022-11-09T06:05:10.533Z,99284.94
2022-11-09T06:07:12.188Z,99302.97
2022-11-09T06:09:13.841Z,99295.78
2022-11-09T06:11:21.862Z,99289.56
2022-11-09T06:13:25.286Z,99292.25
2022-11-09T06:15:27.006Z,99295.94
2022-11-09T06:17:28.582Z,99302.97
2022-11-09T06:19:30.253Z,99296.78
2022-11-09T06:21:31.985Z,99291.41
2022-11-09T06:23:33.631Z,99298.63
2022-11-09T06:25:35.315Z,99297.63
2022-11-09T06:27:36.956Z,99296.63
2022-11-09T06:29:38.711Z,99299.31
2022-11-09T06:31:40.365Z,99302.00
2022-11-09T06:33:41.964Z,99305.56
2022-11-09T06:35:43.646Z,99310.03
2022-11-09T06:37:45.353Z,99303.81
2022-11-09T06:39:47.023Z,99307.50
2022-11-09T06:41:48.806Z,99308.34
2022-11-09T06:43:50.495Z,99311.75
2022-11-09T06:45:52.362Z,99314.44
2022-11-09T06:47:57.792Z,99321.63
2022-11-09T06:49:59.437Z,99321.50
2022-11-09T06:52:01.100Z,99323.22
2022-11-09T06:54:02.842Z,99323.22
2022-11-09T06:56:05.108Z,99331.25
2022-11-09T06:58:07.929Z,99328.56
2022-11-09T07:00:10.278Z,99329.53
2022-11-09T07:02:15.062Z,99335.78
2022-11-09T07:04:16.683Z,99340.25
2022-11-09T07:06:18.276Z,99345.63
2022-11-09T07:08:20.105Z,99335.78
2022-11-09T07:10:21.779Z,99335.78
2022-11-09T07:12:24.031Z,99342.00
2022-11-09T07:14:25.666Z,99342.00
2022-11-09T07:16:27.376Z,99346.50
2022-11-09T07:18:29.104Z,99342.00
2022-11-09T07:20:30.968Z,99351.00
2022-11-09T07:22:32.651Z,99345.63
2022-11-09T07:24:34.350Z,99341.16
2022-11-09T07:26:36.051Z,99344.66
2022-11-09T07:28:37.736Z,99349.03
2022-11-09T07:30:39.718Z,99349.03
2022-11-09T07:35:03.766Z,99350.78
2022-11-09T07:37:05.465Z,99348.09
2022-11-09T07:39:07.054Z,99356.97
2022-11-09T07:41:08.657Z,99352.47
2022-11-09T07:43:10.678Z,99356.97
2022-11-09T07:45:12.360Z,99352.47
2022-11-09T07:47:18.129Z,99356.13
2022-11-09T07:49:20.182Z,99352.47
2022-11-09T07:51:21.906Z,99356.13
2022-11-09T07:53:23.787Z,99356.13
2022-11-09T07:55:25.954Z,99364.19
2022-11-09T07:57:27.577Z,99353.44
2022-11-09T07:59:29.252Z,99356.13
2022-11-09T08:01:30.846Z,99354.41
2022-11-09T08:03:32.522Z,99358.81
2022-11-09T08:05:34.364Z,99361.50
2022-11-09T08:07:36.011Z,99361.50
2022-11-09T08:09:37.686Z,99365.88
2022-11-09T08:11:39.324Z,99358.81
2022-11-09T08:13:41.005Z,99372.22
2022-11-09T08:15:42.637Z,99363.19
2022-11-09T08:17:44.301Z,99365.03
2022-11-09T08:19:45.948Z,99361.50
2022-11-09T08:21:47.644Z,99357.81
2022-11-09T08:23:49.315Z,99364.03
2022-11-09T08:25:51.098Z,99362.22
2022-11-09T08:27:52.827Z,99370.28
2022-11-09T08:29:54.534Z,99362.22
2022-11-09T08:31:56.132Z,99367.44
2022-11-09T08:33:57.804Z,99368.28
2022-11-09T08:35:59.513Z,99363.06
2022-11-09T08:38:02.650Z,99366.59
2022-11-09T08:40:05.169Z,99363.91
2022-11-09T08:42:06.854Z,99366.59
2022-11-09T08:44:08.518Z,99364.75
2022-11-09T08:46:10.196Z,99364.75
2022-11-09T08:48:11.856Z,99363.91
2022-11-09T08:50:14.481Z,99362.94
2022-11-09T08:52:16.808Z,99367.44
2022-11-09T08:54:18.490Z,99367.44
2022-11-09T08:56:20.121Z,99357.56
2022-11-09T08:58:22.345Z,99362.94
2022-11-09T09:00:24.366Z,99362.94
2022-11-09T09:02:25.996Z,99360.25
2022-11-09T09:04:27.681Z,99362.09
2022-11-09T09:06:31.284Z,99355.59
2022-11-09T09:08:33.416Z,99360.97
2022-11-09T09:10:35.182Z,99358.44
2022-11-09T09:12:36.861Z,99355.59
2022-11-09T09:14:38.656Z,99350.25
2022-11-09T09:16:40.404Z,99360.97
2022-11-09T09:18:42.187Z,99360.13
2022-11-09T09:21:28.709Z,99357.34
2022-11-09T09:23:30.685Z,99365.50
2022-11-09T09:25:32.364Z,99357.44
2022-11-09T09:27:34.083Z,99355.75
2022-11-09T09:29:35.736Z,99359.28
2022-11-09T09:31:37.555Z,99361.97
2022-11-09T09:33:39.366Z,99352.19
2022-11-09T09:35:41.090Z,99360.97
2022-11-09T09:37:43.699Z,99359.28
2022-11-09T09:39:45.377Z,99353.91
2022-11-09T09:41:51.707Z,99356.59
2022-11-09T09:43:55.284Z,99353.91
2022-11-09T09:45:57.029Z,99345.13
2022-11-09T09:48:14.909Z,99349.50
2022-11-09T09:50:20.534Z,99344.16
2022-11-09T09:52:54.221Z,99341.47
2022-11-09T09:55:24.915Z,99349.41
2022-11-09T09:57:26.781Z,99352.09
2022-11-09T09:59:36.844Z,99349.41
2022-11-09T10:01:42.752Z,99346.72
2022-11-09T10:03:44.437Z,99351.09
2022-11-09T10:05:57.522Z,99355.59
2022-11-09T10:08:15.349Z,99344.88
2022-11-09T10:10:41.796Z,99353.91
2022-11-09T10:13:20.806Z,99354.75
2022-11-09T10:15:39.146Z,99356.59
2022-11-09T10:17:42.910Z,99346.84
2022-11-09T10:20:14.177Z,99347.81
2022-11-09T10:22:53.280Z,99359.28
2022-11-09T10:25:37.984Z,99364.66
2022-11-09T10:27:52.643Z,99356.59
2022-11-09T10:29:54.490Z,99359.28
2022-11-09T10:31:58.912Z,99359.28
2022-11-09T10:34:02.644Z,99361.97
2022-11-09T10:36:22.993Z,99366.47
2022-11-09T10:38:29.464Z,99364.66
2022-11-09T10:40:55.344Z,99361.97
2022-11-09T10:43:01.935Z,99364.66
2022-11-09T10:45:26.585Z,99360.13
2022-11-09T10:47:28.214Z,99364.66
2022-11-09T10:49:29.919Z,99360.13
2022-11-09T10:51:41.257Z,99360.13
2022-11-09T10:53:42.908Z,99363.66
2022-11-09T10:56:20.918Z,99352.94
2022-11-09T10:58:35.188Z,99363.66
2022-11-09T11:00:36.830Z,99364.50
2022-11-09T11:02:43.253Z,99361.81
2022-11-09T11:04:44.850Z,99367.19
2022-11-09T11:06:46.648Z,99360.97
2022-11-09T11:09:06.384Z,99361.81
2022-11-09T11:11:33.232Z,99361.81
2022-11-09T11:13:35.819Z,99362.69
2022-11-09T11:15:38.947Z,99363.53
2022-11-09T11:17:40.570Z,99358.28
2022-11-09T11:19:42.210Z,99366.22
2022-11-09T11:21:43.967Z,99354.75
2022-11-09T11:23:45.636Z,99355.59
2022-11-09T11:25:53.301Z,99353.91
2022-11-09T11:28:04.834Z,99360.97
2022-11-09T11:30:11.609Z,99353.91
2022-11-09T11:32:18.183Z,99358.28
2022-11-09T11:34:45.686Z,99360.97
2022-11-09T11:36:47.337Z,99357.34
2022-11-09T11:38:56.118Z,99352.94
2022-11-09T11:41:19.424Z,99362.94
2022-11-09T11:43:26.772Z,99348.56
2022-11-09T11:45:45.212Z,99364.66
2022-11-09T11:48:11.600Z,99350.41
2022-11-09T11:50:32.300Z,99350.41
2022-11-09T11:52:55.187Z,99351.25
2022-11-09T11:55:23.880Z,99349.50
2022-11-09T11:57:37.312Z,99357.44
2022-11-09T11:59:54.314Z,99347.72
2022-11-09T12:02:27.118Z,99355.75
2022-11-09T12:04:50.616Z,99354.88
2022-11-09T12:07:13.510Z,99354.88
2022-11-09T12:09:21.805Z,99352.19
2022-11-09T12:11:41.305Z,99350.50
2022-11-09T12:14:00.589Z,99356.72
2022-11-09T12:16:15.728Z,99362.94
2022-11-09T12:18:35.392Z,99361.22
2022-11-09T12:20:43.026Z,99356.72
2022-11-09T12:23:26.456Z,99362.09
2022-11-09T12:25:59.197Z,99355.75
2022-11-09T12:28:47.291Z,99362.09
2022-11-09T12:30:59.062Z,99361.22
2022-11-09T12:33:03.698Z,99357.56
2022-11-09T12:35:29.413Z,99354.88
2022-11-09T12:37:34.437Z,99353.06
2022-11-09T12:39:40.811Z,99347.72
2022-11-09T12:41:42.584Z,99356.59
2022-11-09T12:43:54.988Z,99357.56
2022-11-09T12:45:56.739Z,99357.56
2022-11-09T12:47:58.411Z,99348.56
2022-11-09T12:50:00.268Z,99361.97
2022-11-09T12:52:01.914Z,99365.59
2022-11-09T12:54:07.394Z,99368.28
2022-11-09T12:56:21.375Z,99370.97
2022-11-09T12:58:28.475Z,99371.97
2022-11-09T13:00:36.204Z,99370.97
2022-11-09T13:03:00.782Z,99373.66
2022-11-09T13:05:05.203Z,99372.81
2022-11-09T13:07:07.037Z,99379.03
2022-11-09T13:09:22.902Z,99379.03
2022-11-09T13:11:38.562Z,99379.03
2022-11-09T13:13:40.204Z,99380.00
2022-11-09T13:16:30.489Z,99381.84
2022-11-09T13:18:35.483Z,99391.72
2022-11-09T13:20:56.530Z,99390.00
2022-11-09T13:22:59.945Z,99394.41
2022-11-09T13:25:03.048Z,99398.06
2022-11-09T13:27:04.758Z,99394.41
2022-11-09T13:29:15.641Z,99386.38
2022-11-09T13:31:19.198Z,99395.38
2022-11-09T13:33:23.037Z,99389.16
2022-11-09T13:35:51.173Z,99382.06
2022-11-09T13:37:56.807Z,99385.63
2022-11-09T13:39:59.804Z,99382.94
2022-11-09T13:42:01.572Z,99379.28
2022-11-09T13:44:35.948Z,99387.06
2022-11-09T13:46:41.243Z,99390.28
2022-11-09T13:48:46.798Z,99392.44
2022-11-09T13:50:56.347Z,99397.31
2022-11-09T13:53:03.543Z,99398.53
2022-11-09T13:55:24.368Z,99402.88
2022-11-09T13:57:26.219Z,99400.75
2022-11-09T13:59:39.506Z,99390.81
2022-11-09T14:01:54.012Z,99398.97
2022-11-09T14:03:55.854Z,99392.22
2022-11-09T14:05:58.679Z,99398.06
2022-11-09T14:08:02.010Z,99397.81
2022-11-09T14:10:42.569Z,99396.75
2022-11-09T14:13:05.937Z,99390.09
2022-11-09T14:15:20.190Z,99389.97
2022-11-09T14:18:03.688Z,99388.13
2022-11-09T14:20:59.306Z,99383.63
2022-11-09T14:23:00.997Z,99379.97
2022-11-09T14:25:13.758Z,99372.63
2022-11-09T14:27:20.488Z,99373.47
2022-11-09T14:29:23.741Z,99380.53
2022-11-09T14:31:29.812Z,99379.41
2022-11-09T14:33:33.000Z,99378.91
2022-11-09T14:35:38.368Z,99380.19
2022-11-09T14:37:50.291Z,99382.66
2022-11-09T14:39:52.069Z,99384.22
2022-11-09T14:41:54.379Z,99389.59
2022-11-09T14:43:57.060Z,99386.91
2022-11-09T14:46:02.838Z,99386.06
2022-11-09T14:48:04.899Z,99383.38
2022-11-09T14:50:09.344Z,99382.50
2022-11-09T14:52:18.382Z,99385.78
2022-11-09T14:54:23.485Z,99388.06
2022-11-09T14:56:25.194Z,99382.53
2022-11-09T14:58:27.644Z,99382.31
2022-11-09T15:00:33.706Z,99383.16
2022-11-09T15:02:35.389Z,99398.16
2022-11-09T15:04:59.451Z,99399.72
2022-11-09T15:07:02.746Z,99400.31
2022-11-09T15:09:07.939Z,99406.25
2022-11-09T15:11:10.617Z,99409.69
2022-11-09T15:13:12.338Z,99398.91
2022-11-09T15:15:24.928Z,99393.53
2022-11-09T15:17:29.084Z,99405.13
2022-11-09T15:19:31.958Z,99393.53
2022-11-09T15:21:36.216Z,99388.16
2022-11-09T15:23:42.957Z,99397.06
2022-11-09T15:25:44.601Z,99402.59
2022-11-09T15:27:56.350Z,99408.09
2022-11-09T15:29:58.034Z,99400.88
2022-11-09T15:32:08.859Z,99411.78
2022-11-09T15:34:38.148Z,99416.44
2022-11-09T15:36:44.867Z,99413.03
2022-11-09T15:38:56.830Z,99405.09
2022-11-09T15:40:58.780Z,99407.06
2022-11-09T15:43:02.099Z,99410.75
2022-11-09T15:45:04.665Z,99399.28
2022-11-09T15:47:35.721Z,99407.59
2022-11-09T15:49:38.904Z,99406.88
2022-11-09T15:51:40.849Z,99402.75
2022-11-09T15:53:42.683Z,99416.31
2022-11-09T15:55:44.377Z,99404.00
2022-11-09T15:57:47.853Z,99405.94
2022-11-09T15:59:51.882Z,99399.88
2022-11-09T16:01:53.570Z,99407.22
2022-11-09T16:03:57.885Z,99410.16
2022-11-09T16:06:00.450Z,99405.50
2022-11-09T16:08:02.126Z,99406.22
2022-11-09T16:10:04.237Z,99406.81
2022-11-09T16:12:06.391Z,99403.59
2022-11-09T16:14:08.215Z,99393.16
2022-11-09T16:16:11.160Z,99392.66
2022-11-09T16:18:12.922Z,99392.09
2022-11-09T16:20:14.613Z,99386.19
2022-11-09T16:22:16.343Z,99388.50
2022-11-09T16:24:18.055Z,99389.78
2022-11-09T16:26:20.346Z,99393.94
2022-11-09T16:28:22.458Z,99395.38
2022-11-09T16:30:24.572Z,99392.41
2022-11-09T16:32:26.232Z,99393.13
2022-11-09T16:34:27.977Z,99390.03
2022-11-09T16:36:29.697Z,99392.59
2022-11-09T16:38:32.412Z,99395.84
2022-11-09T16:40:34.080Z,99392.19
2022-11-09T16:42:35.878Z,99390.34
2022-11-09T16:44:38.286Z,99392.03
2022-11-09T16:46:40.863Z,99395.44
2022-11-09T16:48:42.490Z,99390.78
2022-11-09T16:50:44.435Z,99385.84
2022-11-09T16:52:46.140Z,99390.94
2022-11-09T16:54:47.889Z,99391.66
2022-11-09T16:56:49.602Z,99384.59
2022-11-09T16:58:52.341Z,99383.56
2022-11-09T17:01:11.667Z,99395.22
2022-11-09T17:03:14.778Z,99389.97
2022-11-09T17:05:16.513Z,99404.25
2022-11-09T17:07:18.205Z,99401.69
2022-11-09T17:09:19.966Z,99389.13
2022-11-09T17:11:21.683Z,99398.03
2022-11-09T17:13:23.472Z,99405.09
2022-11-09T17:15:25.282Z,99399.72
2022-11-09T17:17:26.955Z,99401.44
2022-11-09T17:19:32.895Z,99408.66
2022-11-09T17:21:34.674Z,99405.09
2022-11-09T17:23:36.701Z,99402.41
2022-11-09T17:25:39.058Z,99410.47
2022-11-09T17:27:41.875Z,99405.97
2022-11-09T17:29:43.777Z,99394.34
2022-11-09T17:31:46.855Z,99403.28
2022-11-09T17:33:48.557Z,99414.19
2022-11-09T17:35:58.376Z,99405.09
2022-11-09T17:38:00.096Z,99410.47
2022-11-09T17:40:02.917Z,99419.03
2022-11-09T17:42:04.671Z,99418.59
2022-11-09T17:44:06.344Z,99411.09
2022-11-09T17:46:10.033Z,99416.06
2022-11-09T17:48:11.748Z,99417.34
2022-11-09T17:50:13.569Z,99418.78
2022-11-09T17:52:15.328Z,99410.56
2022-11-09T17:54:17.097Z,99413.69
2022-11-09T17:56:18.819Z,99406.16
2022-11-09T17:58:20.883Z,99415.22
2022-11-09T18:00:22.943Z,99417.75
2022-11-09T18:02:24.682Z,99425.66
2022-11-09T18:04:26.520Z,99415.44
2022-11-09T18:06:28.267Z,99420.38
2022-11-09T18:08:30.101Z,99413.31
2022-11-09T18:10:31.822Z,99418.94
2022-11-09T18:12:33.463Z,99427.41
2022-11-09T18:14:35.196Z,99412.66
2022-11-09T18:16:37.739Z,99421.03
2022-11-09T18:18:41.547Z,99419.69
2022-11-09T18:20:43.274Z,99423.75
2022-11-09T18:22:45.061Z,99430.66
2022-11-09T18:24:46.865Z,99428.50
2022-11-09T18:26:50.441Z,99427.19
2022-11-09T18:28:55.228Z,99421.22
2022-11-09T18:31:03.527Z,99432.25
2022-11-09T18:33:05.198Z,99432.25
2022-11-09T18:35:07.298Z,99425.88
2022-11-09T18:37:08.945Z,99432.13
2022-11-09T18:39:11.768Z,99428.31
2022-11-09T18:41:20.880Z,99435.09
2022-11-09T18:43:22.553Z,99427.78
2022-11-09T18:45:24.277Z,99422.16
2022-11-09T18:47:26.085Z,99431.19
2022-11-09T18:49:27.827Z,99426.53
2022-11-09T18:51:29.668Z,99432.63
2022-11-09T18:53:36.342Z,99429.53
2022-11-09T18:55:38.088Z,99432.22
2022-11-09T18:57:39.824Z,99430.97
2022-11-09T18:59:41.546Z,99438.69
2022-11-09T19:01:43.285Z,99436.16
2022-11-09T19:03:45.082Z,99437.31
2022-11-09T19:05:47.387Z,99429.69
2022-11-09T19:07:49.175Z,99439.22
2022-11-09T19:09:56.225Z,99433.69
2022-11-09T19:12:00.883Z,99434.53
2022-11-09T19:14:02.412Z,99434.13
2022-11-09T19:16:04.825Z,99431.28
2022-11-09T19:18:06.505Z,99439.09
2022-11-09T19:20:08.643Z,99450.09
2022-11-09T19:22:14.325Z,99451.63
2022-11-09T19:24:17.646Z,99457.69
2022-11-09T19:26:19.878Z,99451.69
2022-11-09T19:28:21.826Z,99450.41
2022-11-09T19:30:24.040Z,99442.13
2022-11-09T19:32:25.788Z,99446.06
2022-11-09T19:34:27.613Z,99450.72
2022-11-09T19:36:31.296Z,99447.03
2022-11-09T19:38:33.477Z,99455.25
2022-11-09T19:40:39.644Z,99455.25
2022-11-09T19:42:41.795Z,99458.06
2022-11-09T19:44:43.479Z,99450.13
2022-11-09T19:46:45.165Z,99452.13
2022-11-09T19:48:47.226Z,99454.09
2022-11-09T19:50:51.063Z,99440.75
2022-11-09T19:52:52.758Z,99453.22
2022-11-09T19:54:54.448Z,99456.88
2022-11-09T19:56:56.122Z,99450.94
2022-11-09T19:58:59.201Z,99446.66
2022-11-09T20:01:05.287Z,99455.31
2022-11-09T20:03:07.017Z,99456.31
2022-11-09T20:05:09.012Z,99452.75
2022-11-09T20:07:10.852Z,99451.06
2022-11-09T20:09:13.467Z,99455.44
2022-11-09T20:11:16.679Z,99451.06
2022-11-09T20:13:19.298Z,99464.50
2022-11-09T20:15:21.258Z,99461.09
2022-11-09T20:17:23.107Z,99469.44
2022-11-09T20:19:24.876Z,99458.66
2022-11-09T20:21:26.624Z,99460.47
2022-11-09T20:23:28.402Z,99457.94
2022-11-09T20:25:30.148Z,99463.31
2022-11-09T20:27:32.420Z,99459.19
2022-11-09T20:29:34.363Z,99456.50
2022-11-09T20:31:36.060Z,99463.59
2022-11-09T20:33:37.982Z,99458.47
2022-11-09T20:35:42.986Z,99458.47
2022-11-09T20:37:48.429Z,99452.50
2022-11-09T20:39:50.205Z,99458.00
2022-11-09T20:41:51.986Z,99459.00
2022-11-09T20:43:53.722Z,99455.72
2022-11-09T20:45:55.690Z,99458.50
2022-11-09T20:48:10.580Z,99456.94
2022-11-09T20:50:16.568Z,99449.03
2022-11-09T20:52:18.300Z,99466.38
2022-11-09T20:54:20.081Z,99460.28
2022-11-09T20:56:21.907Z,99446.13
2022-11-09T20:58:23.821Z,99456.88
2022-11-09T21:00:25.739Z,99446.38
2022-11-09T21:02:28.252Z,99444.66
2022-11-09T21:04:29.910Z,99447.78
2022-11-09T21:06:31.886Z,99456.06
2022-11-09T21:08:33.993Z,99465.13
2022-11-09T21:10:35.784Z,99462.78
2022-11-09T21:12:37.577Z,99459.47
2022-11-09T21:14:39.249Z,99458.75
2022-11-09T21:16:40.961Z,99472.44
2022-11-09T21:18:42.769Z,99470.75
2022-11-09T21:20:44.613Z,99473.56
2022-11-09T21:22:46.353Z,99475.50
2022-11-09T21:24:48.163Z,99471.13
2022-11-09T21:26:49.838Z,99473.81
2022-11-09T21:28:51.605Z,99470.41
2022-11-09T21:30:53.286Z,99474.06
2022-11-09T21:32:54.996Z,99463.56
2022-11-09T21:34:56.728Z,99467.25
2022-11-09T21:36:58.428Z,99458.47
2022-11-09T21:39:01.935Z,99469.19
2022-11-09T21:41:08.019Z,99466.63
2022-11-09T21:43:09.849Z,99460.69
2022-11-09T21:45:11.548Z,99473.09
2022-11-09T21:47:13.334Z,99478.47
2022-11-09T21:49:15.081Z,99474.22
2022-11-09T21:51:16.892Z,99484.09
2022-11-09T21:53:18.800Z,99481.44
2022-11-09T21:55:20.703Z,99476.16
2022-11-09T21:57:22.435Z,99489.69
2022-11-09T21:59:24.217Z,99493.38
2022-11-09T22:01:26.156Z,99479.97
2022-11-09T22:03:27.879Z,99476.53
2022-11-09T22:05:29.514Z,99489.13
2022-11-09T22:07:31.206Z,99492.06
2022-11-09T22:09:58.099Z,99487.81
2022-11-09T22:11:54.581Z,99489.75
2022-11-09T22:13:56.354Z,99494.38
2022-11-09T22:15:59.251Z,99503.41
2022-11-09T22:18:01.006Z,99508.75
2022-11-09T22:20:02.812Z,99499.97
2022-11-09T22:22:04.524Z,99515.38
2022-11-09T22:24:06.545Z,99498.41
2022-11-09T22:26:08.270Z,99509.28
2022-11-09T22:28:10.011Z,99511.97
2022-11-09T22:30:11.956Z,99512.91
2022-11-09T22:32:13.655Z,99502.19
2022-11-09T22:34:15.380Z,99503.06
2022-11-09T22:36:17.134Z,99507.53
2022-11-09T22:38:18.872Z,99507.69
2022-11-09T22:40:20.817Z,99508.66
2022-11-09T22:42:22.524Z,99505.13
2022-11-09T22:44:24.271Z,99502.44
2022-11-09T22:46:26.051Z,99507.81
2022-11-09T22:48:27.729Z,99511.47
2022-11-09T22:50:29.654Z,99504.38
2022-11-09T22:52:31.421Z,99507.06
2022-11-09T22:54:33.104Z,99507.91
2022-11-09T22:56:34.817Z,99509.88
2022-11-09T22:58:36.503Z,99498.28
2022-11-09T23:00:38.219Z,99495.84
2022-11-09T23:02:40.010Z,99498.66
2022-11-09T23:04:41.765Z,99505.75
2022-11-09T23:06:43.459Z,99494.13
2022-11-09T23:08:45.334Z,99495.00
2022-11-09T23:10:54.317Z,99488.91
2022-11-09T23:12:55.962Z,99491.72
2022-11-09T23:14:57.613Z,99483.66
2022-11-09T23:16:59.322Z,99490.75
2022-11-09T23:19:01.046Z,99490.75
2022-11-09T23:21:02.770Z,99490.75
2022-11-09T23:23:05.801Z,99500.38
2022-11-09T23:25:09.126Z,99499.50
2022-11-09T23:27:10.825Z,99497.81
2022-11-09T23:29:12.513Z,99496.97
2022-11-09T23:31:15.951Z,99499.50
2022-11-09T23:33:17.650Z,99508.53
2022-11-09T23:35:19.363Z,99500.59
2022-11-09T23:37:21.091Z,99497.22
2022-11-09T23:39:22.767Z,99503.44
2022-11-09T23:41:24.541Z,99502.59
2022-11-09T23:43:26.236Z,99507.06
2022-11-09T23:45:28.214Z,99499.03
2022-11-09T23:47:29.962Z,99508.78
2022-11-09T23:49:31.660Z,99508.78
2022-11-09T23:51:33.364Z,99493.78
2022-11-09T23:53:35.823Z,99496.34
2022-11-09T23:55:38.252Z,99496.47
2022-11-09T23:57:40.096Z,99503.66
2022-11-09T23:59:41.817Z,99501.09
